sensor_id;sensor_type;location;lat;lon;timestamp;pressure;altitude;pressure_sealevel;temperature;humidity
35023;BME280;21214;44.912;8.204;2022-12-20T00:00:59;101286.16;;;-0.57;100.00
35023;BME280;21214;44.912;8.204;2022-12-20T00:03:25;101286.09;;;-0.54;100.00
35023;BME280;21214;44.912;8.204;2022-12-20T00:05:50;101282.56;;;-0.50;100.00
35023;BME280;21214;44.912;8.204;2022-12-20T00:08:16;101279.00;;;-0.46;100.00
35023;BME280;21214;44.912;8.204;2022-12-20T00:10:43;101271.22;;;-0.46;100.00
35023;BME280;21214;44.912;8.204;2022-12-20T00:13:09;101276.38;;;-0.43;100.00
35023;BME280;21214;44.912;8.204;2022-12-20T00:15:34;101275.47;;;-0.42;100.00
35023;BME280;21214;44.912;8.204;2022-12-20T00:18:00;101267.63;;;-0.38;100.00
35023;BME280;21214;44.912;8.204;2022-12-20T00:20:26;101266.66;;;-0.34;100.00
35023;BME280;21214;44.912;8.204;2022-12-20T00:22:53;101260.63;;;-0.35;100.00
35023;BME280;21214;44.912;8.204;2022-12-20T00:25:19;101265.03;;;-0.38;100.00
35023;BME280;21214;44.912;8.204;2022-12-20T00:27:46;101266.59;;;-0.31;100.00
35023;BME280;21214;44.912;8.204;2022-12-20T00:30:12;101262.28;;;-0.31;100.00
35023;BME280;21214;44.912;8.204;2022-12-20T00:32:39;101261.56;;;-0.37;100.00
35023;BME280;21214;44.912;8.204;2022-12-20T00:35:06;101253.81;;;-0.41;100.00
35023;BME280;21214;44.912;8.204;2022-12-20T00:37:32;101253.88;;;-0.42;100.00
35023;BME280;21214;44.912;8.204;2022-12-20T00:39:58;101254.66;;;-0.38;100.00
35023;BME280;21214;44.912;8.204;2022-12-20T00:42:23;101245.91;;;-0.34;100.00
35023;BME280;21214;44.912;8.204;2022-12-20T00:44:49;101252.03;;;-0.37;100.00
35023;BME280;21214;44.912;8.204;2022-12-20T00:47:14;101250.34;;;-0.39;100.00
35023;BME280;21214;44.912;8.204;2022-12-20T00:49:40;101249.41;;;-0.35;100.00
35023;BME280;21214;44.912;8.204;2022-12-20T00:52:05;101251.19;;;-0.37;100.00
35023;BME280;21214;44.912;8.204;2022-12-20T00:54:31;101252.09;;;-0.40;100.00
35023;BME280;21214;44.912;8.204;2022-12-20T00:56:56;101246.97;;;-0.43;100.00
35023;BME280;21214;44.912;8.204;2022-12-20T00:59:22;101246.03;;;-0.41;100.00
35023;BME280;21214;44.912;8.204;2022-12-20T01:01:49;101239.16;;;-0.42;100.00
35023;BME280;21214;44.912;8.204;2022-12-20T01:04:14;101231.34;;;-0.40;100.00
35023;BME280;21214;44.912;8.204;2022-12-20T01:06:40;101234.00;;;-0.42;100.00
35023;BME280;21214;44.912;8.204;2022-12-20T01:09:06;101224.41;;;-0.39;100.00
35023;BME280;21214;44.912;8.204;2022-12-20T01:11:33;101228.78;;;-0.42;100.00
35023;BME280;21214;44.912;8.204;2022-12-20T01:14:01;101224.56;;;-0.47;100.00
35023;BME280;21214;44.912;8.204;2022-12-20T01:16:28;101223.75;;;-0.48;100.00
35023;BME280;21214;44.912;8.204;2022-12-20T01:18:54;101229.91;;;-0.53;100.00
35023;BME280;21214;44.912;8.204;2022-12-20T01:21:20;101230.03;;;-0.59;100.00
35023;BME280;21214;44.912;8.204;2022-12-20T01:23:46;101230.88;;;-0.59;100.00
35023;BME280;21214;44.912;8.204;2022-12-20T01:26:13;101231.03;;;-0.65;100.00
35023;BME280;21214;44.912;8.204;2022-12-20T01:28:40;101234.50;;;-0.66;100.00
35023;BME280;21214;44.912;8.204;2022-12-20T01:31:06;101235.38;;;-0.67;100.00
35023;BME280;21214;44.912;8.204;2022-12-20T01:33:33;101229.31;;;-0.66;100.00
35023;BME280;21214;44.912;8.204;2022-12-20T01:35:59;101227.69;;;-0.71;100.00
35023;BME280;21214;44.912;8.204;2022-12-20T01:38:25;101222.41;;;-0.67;100.00
35023;BME280;21214;44.912;8.204;2022-12-20T01:40:50;101215.63;;;-0.74;100.00
35023;BME280;21214;44.912;8.204;2022-12-20T01:43:16;101214.75;;;-0.73;100.00
35023;BME280;21214;44.912;8.204;2022-12-20T01:45:42;101217.59;;;-0.85;100.00
35023;BME280;21214;44.912;8.204;2022-12-20T01:48:07;101218.63;;;-0.94;100.00
35023;BME280;21214;44.912;8.204;2022-12-20T01:50:34;101217.91;;;-1.00;100.00
35023;BME280;21214;44.912;8.204;2022-12-20T01:53:00;101223.88;;;-0.97;100.00
35023;BME280;21214;44.912;8.204;2022-12-20T01:55:28;101217.97;;;-1.03;100.00
35023;BME280;21214;44.912;8.204;2022-12-20T02:00:20;101215.38;;;-1.05;100.00
35023;BME280;21214;44.912;8.204;2022-12-20T02:02:46;101216.25;;;-1.04;100.00
35023;BME280;21214;44.912;8.204;2022-12-20T02:05:13;101212.66;;;-0.97;100.00
35023;BME280;21214;44.912;8.204;2022-12-20T02:07:39;101211.69;;;-0.92;100.00
35023;BME280;21214;44.912;8.204;2022-12-20T02:10:07;101202.22;;;-0.94;100.00
35023;BME280;21214;44.912;8.204;2022-12-20T02:12:37;101196.09;;;-0.90;100.00
35023;BME280;21214;44.912;8.204;2022-12-20T02:18:07;101190.16;;;-0.95;100.00
35023;BME280;21214;44.912;8.204;2022-12-20T02:31:23;101185.88;;;-0.96;100.00
35023;BME280;21214;44.912;8.204;2022-12-20T02:33:50;101185.03;;;-0.98;100.00
35023;BME280;21214;44.912;8.204;2022-12-20T02:36:16;101183.44;;;-1.05;100.00
35023;BME280;21214;44.912;8.204;2022-12-20T02:38:43;101174.91;;;-1.10;100.00
35023;BME280;21214;44.912;8.204;2022-12-20T02:41:19;101183.56;;;-1.11;100.00
35023;BME280;21214;44.912;8.204;2022-12-20T02:43:48;101180.81;;;-1.04;100.00
35023;BME280;21214;44.912;8.204;2022-12-20T02:46:35;101178.13;;;-0.99;100.00
35023;BME280;21214;44.912;8.204;2022-12-20T02:49:04;101178.13;;;-0.99;100.00
35023;BME280;21214;44.912;8.204;2022-12-20T02:51:33;101174.78;;;-1.04;100.00
35023;BME280;21214;44.912;8.204;2022-12-20T02:53:59;101171.22;;;-0.99;100.00
35023;BME280;21214;44.912;8.204;2022-12-20T02:56:32;101173.66;;;-0.91;100.00
35023;BME280;21214;44.912;8.204;2022-12-20T02:59:22;101172.78;;;-0.90;100.00
35023;BME280;21214;44.912;8.204;2022-12-20T03:01:53;101167.53;;;-0.87;100.00
35023;BME280;21214;44.912;8.204;2022-12-20T03:04:21;101167.41;;;-0.81;100.00
35023;BME280;21214;44.912;8.204;2022-12-20T03:07:21;101174.28;;;-0.80;100.00
35023;BME280;21214;44.912;8.204;2022-12-20T03:09:40;101180.22;;;-0.75;100.00
35023;BME280;21214;44.912;8.204;2022-12-20T03:12:07;101174.25;;;-0.77;100.00
35023;BME280;21214;44.912;8.204;2022-12-20T03:14:35;101168.97;;;-0.74;100.00
35023;BME280;21214;44.912;8.204;2022-12-20T03:17:03;101172.31;;;-0.69;100.00
35023;BME280;21214;44.912;8.204;2022-12-20T03:19:29;101164.44;;;-0.64;100.00
35023;BME280;21214;44.912;8.204;2022-12-20T03:21:56;101167.81;;;-0.59;100.00
35023;BME280;21214;44.912;8.204;2022-12-20T03:24:21;101169.56;;;-0.61;100.00
35023;BME280;21214;44.912;8.204;2022-12-20T03:26:47;101150.53;;;-0.60;100.00
35023;BME280;21214;44.912;8.204;2022-12-20T03:29:14;101146.13;;;-0.57;100.00
35023;BME280;21214;44.912;8.204;2022-12-20T03:31:39;101152.19;;;-0.58;100.00
35023;BME280;21214;44.912;8.204;2022-12-20T03:34:05;101150.50;;;-0.59;100.00
35023;BME280;21214;44.912;8.204;2022-12-20T03:36:32;101150.59;;;-0.63;100.00
35023;BME280;21214;44.912;8.204;2022-12-20T03:39:01;101137.63;;;-0.63;100.00
35023;BME280;21214;44.912;8.204;2022-12-20T03:41:30;101138.75;;;-0.75;100.00
35023;BME280;21214;44.912;8.204;2022-12-20T03:43:57;101143.16;;;-0.77;100.00
35023;BME280;21214;44.912;8.204;2022-12-20T03:46:24;101139.84;;;-0.85;100.00
35023;BME280;21214;44.912;8.204;2022-12-20T03:48:50;101145.78;;;-1.21;100.00
35023;BME280;21214;44.912;8.204;2022-12-20T03:51:15;101147.63;;;-1.28;100.00
35023;BME280;21214;44.912;8.204;2022-12-20T03:53:41;101132.06;;;-1.27;100.00
35023;BME280;21214;44.912;8.204;2022-12-20T03:56:06;101141.44;;;-1.19;100.00
35023;BME280;21214;44.912;8.204;2022-12-20T03:58:33;101137.84;;;-1.12;100.00
35023;BME280;21214;44.912;8.204;2022-12-20T04:00:58;101124.06;;;-1.14;100.00
35023;BME280;21214;44.912;8.204;2022-12-20T04:03:43;101135.13;;;-1.06;100.00
35023;BME280;21214;44.912;8.204;2022-12-20T04:06:08;101132.53;;;-1.06;100.00
35023;BME280;21214;44.912;8.204;2022-12-20T04:08:33;101126.31;;;-0.99;100.00
35023;BME280;21214;44.912;8.204;2022-12-20T04:10:59;101134.94;;;-0.97;100.00
35023;BME280;21214;44.912;8.204;2022-12-20T04:14:06;101139.69;;;-1.19;100.00
35023;BME280;21214;44.912;8.204;2022-12-20T04:16:31;101139.97;;;-1.34;100.00
35023;BME280;21214;44.912;8.204;2022-12-20T04:18:59;101126.88;;;-1.27;100.00
35023;BME280;21214;44.912;8.204;2022-12-20T04:21:29;101123.31;;;-1.19;100.00
35023;BME280;21214;44.912;8.204;2022-12-20T04:23:56;101117.13;;;-1.14;100.00
35023;BME280;21214;44.912;8.204;2022-12-20T04:26:27;101121.25;;;-1.05;100.00
35023;BME280;21214;44.912;8.204;2022-12-20T04:28:53;101127.53;;;-1.17;100.00
35023;BME280;21214;44.912;8.204;2022-12-20T04:31:18;101113.72;;;-1.16;100.00
35023;BME280;21214;44.912;8.204;2022-12-20T04:33:44;101122.25;;;-1.11;100.00
35023;BME280;21214;44.912;8.204;2022-12-20T04:36:10;101108.31;;;-1.05;100.00
35023;BME280;21214;44.912;8.204;2022-12-20T04:38:38;101105.66;;;-1.02;100.00
35023;BME280;21214;44.912;8.204;2022-12-20T04:41:04;101107.38;;;-1.01;100.00
35023;BME280;21214;44.912;8.204;2022-12-20T04:43:39;101103.91;;;-1.00;100.00
35023;BME280;21214;44.912;8.204;2022-12-20T04:46:06;101110.84;;;-1.02;100.00
35023;BME280;21214;44.912;8.204;2022-12-20T04:48:31;101119.47;;;-1.00;100.00
35023;BME280;21214;44.912;8.204;2022-12-20T04:50:57;101109.09;;;-1.00;100.00
35023;BME280;21214;44.912;8.204;2022-12-20T04:53:23;101111.63;;;-0.99;100.00
35023;BME280;21214;44.912;8.204;2022-12-20T04:56:08;101109.84;;;-0.95;100.00
35023;BME280;21214;44.912;8.204;2022-12-20T04:58:34;101103.81;;;-0.97;100.00
35023;BME280;21214;44.912;8.204;2022-12-20T05:01:01;101102.19;;;-1.01;100.00
35023;BME280;21214;44.912;8.204;2022-12-20T05:03:34;101092.13;;;-1.16;100.00
35023;BME280;21214;44.912;8.204;2022-12-20T05:05:59;101086.94;;;-1.15;100.00
35023;BME280;21214;44.912;8.204;2022-12-20T05:08:25;101095.47;;;-1.11;100.00
35023;BME280;21214;44.912;8.204;2022-12-20T05:10:51;101104.22;;;-1.15;100.00
35023;BME280;21214;44.912;8.204;2022-12-20T05:13:17;101108.63;;;-1.20;100.00
35023;BME280;21214;44.912;8.204;2022-12-20T05:15:44;101107.69;;;-1.16;100.00
35023;BME280;21214;44.912;8.204;2022-12-20T05:18:10;101107.63;;;-1.13;100.00
35023;BME280;21214;44.912;8.204;2022-12-20T05:20:59;101116.44;;;-1.24;100.00
35023;BME280;21214;44.912;8.204;2022-12-20T05:23:46;101116.44;;;-1.24;100.00
35023;BME280;21214;44.912;8.204;2022-12-20T05:26:35;101114.94;;;-1.34;100.00
35023;BME280;21214;44.912;8.204;2022-12-20T05:29:02;101114.94;;;-1.34;100.00
35023;BME280;21214;44.912;8.204;2022-12-20T05:31:27;101115.00;;;-1.37;100.00
35023;BME280;21214;44.912;8.204;2022-12-20T05:33:53;101108.25;;;-1.44;100.00
35023;BME280;21214;44.912;8.204;2022-12-20T05:36:20;101105.53;;;-1.38;100.00
35023;BME280;21214;44.912;8.204;2022-12-20T05:38:46;101113.22;;;-1.35;100.00
35023;BME280;21214;44.912;8.204;2022-12-20T05:41:15;101107.94;;;-1.29;100.00
35023;BME280;21214;44.912;8.204;2022-12-20T05:43:43;101105.34;;;-1.29;100.00
35023;BME280;21214;44.912;8.204;2022-12-20T05:46:09;101112.34;;;-1.34;100.00
35023;BME280;21214;44.912;8.204;2022-12-20T05:48:46;101105.69;;;-1.47;100.00
35023;BME280;21214;44.912;8.204;2022-12-20T05:51:12;101104.81;;;-1.46;100.00
35023;BME280;21214;44.912;8.204;2022-12-20T05:54:00;101098.00;;;-1.50;100.00
35023;BME280;21214;44.912;8.204;2022-12-20T05:56:43;101095.63;;;-1.60;100.00
35023;BME280;21214;44.912;8.204;2022-12-20T05:59:08;101092.09;;;-1.56;100.00
35023;BME280;21214;44.912;8.204;2022-12-20T06:01:34;101112.78;;;-1.55;100.00
35023;BME280;21214;44.912;8.204;2022-12-20T06:04:01;101105.88;;;-1.54;100.00
35023;BME280;21214;44.912;8.204;2022-12-20T06:06:27;101101.53;;;-1.54;100.00
35023;BME280;21214;44.912;8.204;2022-12-20T06:08:53;101098.91;;;-1.52;100.00
35023;BME280;21214;44.912;8.204;2022-12-20T06:11:31;101095.44;;;-1.51;100.00
35023;BME280;21214;44.912;8.204;2022-12-20T06:14:01;101091.19;;;-1.54;100.00
35023;BME280;21214;44.912;8.204;2022-12-20T06:16:28;101094.59;;;-1.52;100.00
35023;BME280;21214;44.912;8.204;2022-12-20T06:18:55;101098.00;;;-1.50;100.00
35023;BME280;21214;44.912;8.204;2022-12-20T06:21:21;101088.53;;;-1.51;100.00
35023;BME280;21214;44.912;8.204;2022-12-20T06:23:47;101102.34;;;-1.52;100.00
35023;BME280;21214;44.912;8.204;2022-12-20T06:26:15;101091.13;;;-1.51;100.00
35023;BME280;21214;44.912;8.204;2022-12-20T06:28:47;101098.84;;;-1.48;100.00
35023;BME280;21214;44.912;8.204;2022-12-20T06:31:19;101095.34;;;-1.47;100.00
35023;BME280;21214;44.912;8.204;2022-12-20T06:33:51;101099.72;;;-1.49;100.00
35023;BME280;21214;44.912;8.204;2022-12-20T06:36:19;101105.91;;;-1.57;100.00
35023;BME280;21214;44.912;8.204;2022-12-20T06:38:44;101093.13;;;-1.65;100.00
35023;BME280;21214;44.912;8.204;2022-12-20T06:41:09;101086.94;;;-1.58;100.00
35023;BME280;21214;44.912;8.204;2022-12-20T06:43:35;101084.34;;;-1.58;100.00
35023;BME280;21214;44.912;8.204;2022-12-20T06:46:01;101086.25;;;-1.66;100.00
35023;BME280;21214;44.912;8.204;2022-12-20T06:48:26;101086.41;;;-1.75;100.00
35023;BME280;21214;44.912;8.204;2022-12-20T06:50:52;101081.22;;;-1.75;100.00
35023;BME280;21214;44.912;8.204;2022-12-20T06:53:18;101086.34;;;-1.72;100.00
35023;BME280;21214;44.912;8.204;2022-12-20T06:55:46;101093.25;;;-1.71;100.00
35023;BME280;21214;44.912;8.204;2022-12-20T06:58:11;101086.34;;;-1.72;100.00
35023;BME280;21214;44.912;8.204;2022-12-20T07:00:37;101084.69;;;-1.76;100.00
35023;BME280;21214;44.912;8.204;2022-12-20T07:03:03;101087.25;;;-1.75;100.00
35023;BME280;21214;44.912;8.204;2022-12-20T07:05:28;101085.59;;;-1.77;100.00
35023;BME280;21214;44.912;8.204;2022-12-20T07:07:54;101090.66;;;-1.71;100.00
35023;BME280;21214;44.912;8.204;2022-12-20T07:10:19;101092.34;;;-1.70;100.00
35023;BME280;21214;44.912;8.204;2022-12-20T07:12:44;101087.13;;;-1.69;100.00
35023;BME280;21214;44.912;8.204;2022-12-20T07:15:10;101088.00;;;-1.68;100.00
35023;BME280;21214;44.912;8.204;2022-12-20T07:17:35;101081.88;;;-1.64;100.00
35023;BME280;21214;44.912;8.204;2022-12-20T07:20:01;101081.72;;;-1.56;100.00
35023;BME280;21214;44.912;8.204;2022-12-20T07:22:26;101074.84;;;-1.57;100.00
35023;BME280;21214;44.912;8.204;2022-12-20T07:24:52;101086.97;;;-1.59;100.00
35023;BME280;21214;44.912;8.204;2022-12-20T07:27:17;101091.34;;;-1.63;100.00
35023;BME280;21214;44.912;8.204;2022-12-20T07:29:42;101091.47;;;-1.69;100.00
35023;BME280;21214;44.912;8.204;2022-12-20T07:32:09;101081.34;;;-1.81;100.00
35023;BME280;21214;44.912;8.204;2022-12-20T07:34:36;101086.47;;;-1.78;100.00
35023;BME280;21214;44.912;8.204;2022-12-20T07:37:01;101082.94;;;-1.74;100.00
35023;BME280;21214;44.912;8.204;2022-12-20T07:39:27;101088.84;;;-1.68;100.00
35023;BME280;21214;44.912;8.204;2022-12-20T07:41:55;101082.78;;;-1.65;100.00
35023;BME280;21214;44.912;8.204;2022-12-20T07:44:21;101090.41;;;-1.59;100.00
35023;BME280;21214;44.912;8.204;2022-12-20T07:46:47;101068.78;;;-1.55;100.00
35023;BME280;21214;44.912;8.204;2022-12-20T07:49:12;101075.59;;;-1.51;100.00
35023;BME280;21214;44.912;8.204;2022-12-20T07:51:45;101079.81;;;-1.47;100.00
35023;BME280;21214;44.912;8.204;2022-12-20T07:54:23;101078.00;;;-1.42;100.00
35023;BME280;21214;44.912;8.204;2022-12-20T07:56:52;101076.97;;;-1.35;100.00
35023;BME280;21214;44.912;8.204;2022-12-20T07:59:20;101082.03;;;-1.29;100.00
35023;BME280;21214;44.912;8.204;2022-12-20T08:01:49;101086.31;;;-1.26;100.00
35023;BME280;21214;44.912;8.204;2022-12-20T08:04:16;101078.47;;;-1.23;100.00
35023;BME280;21214;44.912;8.204;2022-12-20T08:06:43;101078.38;;;-1.18;100.00
35023;BME280;21214;44.912;8.204;2022-12-20T08:09:09;101081.72;;;-1.13;100.00
35023;BME280;21214;44.912;8.204;2022-12-20T08:11:37;101086.97;;;-1.16;100.00
35023;BME280;21214;44.912;8.204;2022-12-20T08:14:04;101094.84;;;-1.23;100.00
35023;BME280;21214;44.912;8.204;2022-12-20T08:16:31;101089.16;;;-1.40;100.00
35023;BME280;21214;44.912;8.204;2022-12-20T08:18:56;101091.78;;;-1.41;100.00
35023;BME280;21214;44.912;8.204;2022-12-20T08:21:22;101099.47;;;-1.37;100.00
35023;BME280;21214;44.912;8.204;2022-12-20T08:23:47;101099.34;;;-1.31;100.00
35023;BME280;21214;44.912;8.204;2022-12-20T08:26:13;101098.31;;;-1.24;100.00
35023;BME280;21214;44.912;8.204;2022-12-20T08:28:38;101092.22;;;-1.19;100.00
35023;BME280;21214;44.912;8.204;2022-12-20T08:31:04;101096.31;;;-1.09;100.00
35023;BME280;21214;44.912;8.204;2022-12-20T08:33:31;101086.69;;;-1.04;100.00
35023;BME280;21214;44.912;8.204;2022-12-20T08:36:00;101091.72;;;-0.95;100.00
35023;BME280;21214;44.912;8.204;2022-12-20T08:38:29;101089.75;;;-0.86;100.00
35023;BME280;21214;44.912;8.204;2022-12-20T08:41:03;101081.88;;;-0.81;100.00
35023;BME280;21214;44.912;8.204;2022-12-20T08:43:30;101072.97;;;-0.69;100.00
35023;BME280;21214;44.912;8.204;2022-12-20T08:45:55;101073.69;;;-0.63;100.00
35023;BME280;21214;44.912;8.204;2022-12-20T08:48:21;101076.97;;;-0.55;100.00
35023;BME280;21214;44.912;8.204;2022-12-20T08:50:46;101086.44;;;-0.54;100.00
35023;BME280;21214;44.912;8.204;2022-12-20T08:53:12;101086.31;;;-0.48;100.00
35023;BME280;21214;44.912;8.204;2022-12-20T08:55:37;101093.81;;;-0.37;100.00
35023;BME280;21214;44.912;8.204;2022-12-20T08:58:02;101090.19;;;-0.30;100.00
35023;BME280;21214;44.912;8.204;2022-12-20T09:00:28;101092.59;;;-0.22;100.00
35023;BME280;21214;44.912;8.204;2022-12-20T09:02:53;101098.44;;;-0.14;100.00
35023;BME280;21214;44.912;8.204;2022-12-20T09:05:19;101099.19;;;-0.09;100.00
35023;BME280;21214;44.912;8.204;2022-12-20T09:07:45;101099.19;;;-0.09;100.00
35023;BME280;21214;44.912;8.204;2022-12-20T09:10:10;101101.63;;;-0.03;100.00
35023;BME280;21214;44.912;8.204;2022-12-20T09:12:37;101106.75;;;0.00;100.00
35023;BME280;21214;44.912;8.204;2022-12-20T09:15:03;101096.19;;;0.06;100.00
35023;BME280;21214;44.912;8.204;2022-12-20T09:17:28;101110.69;;;0.15;100.00
35023;BME280;21214;44.912;8.204;2022-12-20T09:19:55;101105.41;;;0.18;100.00
35023;BME280;21214;44.912;8.204;2022-12-20T09:22:21;101106.16;;;0.23;100.00
35023;BME280;21214;44.912;8.204;2022-12-20T09:24:47;101108.66;;;0.26;100.00
35023;BME280;21214;44.912;8.204;2022-12-20T09:27:13;101104.41;;;0.23;100.00
35023;BME280;21214;44.912;8.204;2022-12-20T09:29:39;101102.59;;;0.27;100.00
35023;BME280;21214;44.912;8.204;2022-12-20T09:32:05;101097.25;;;0.31;100.00
35023;BME280;21214;44.912;8.204;2022-12-20T09:34:31;101093.78;;;0.32;100.00
35023;BME280;21214;44.912;8.204;2022-12-20T09:36:56;101098.03;;;0.35;100.00
35023;BME280;21214;44.912;8.204;2022-12-20T09:39:22;101107.41;;;0.40;100.00
35023;BME280;21214;44.912;8.204;2022-12-20T09:41:48;101100.25;;;0.49;100.00
35023;BME280;21214;44.912;8.204;2022-12-20T09:46:39;101108.75;;;0.54;100.00
35023;BME280;21214;44.912;8.204;2022-12-20T09:49:05;101106.75;;;0.32;100.00
35023;BME280;21214;44.912;8.204;2022-12-20T09:54:18;101095.78;;;0.54;100.00
35023;BME280;21214;44.912;8.204;2022-12-20T09:59:32;101091.78;;;0.73;100.00
35023;BME280;21214;44.912;8.204;2022-12-20T10:01:58;101092.59;;;0.75;100.00
35023;BME280;21214;44.912;8.204;2022-12-20T10:04:25;101081.31;;;0.76;100.00
35023;BME280;21214;44.912;8.204;2022-12-20T10:12:34;101075.66;;;0.91;100.00
35023;BME280;21214;44.912;8.204;2022-12-20T10:17:41;101056.06;;;1.09;100.00
35023;BME280;21214;44.912;8.204;2022-12-20T10:20:27;101052.34;;;1.17;100.00
35023;BME280;21214;44.912;8.204;2022-12-20T10:25:22;101046.69;;;1.31;100.00
35023;BME280;21214;44.912;8.204;2022-12-20T10:27:48;101044.72;;;1.39;100.00
35023;BME280;21214;44.912;8.204;2022-12-20T10:30:18;101035.06;;;1.43;100.00
35023;BME280;21214;44.912;8.204;2022-12-20T10:32:46;101034.16;;;1.44;100.00
35023;BME280;21214;44.912;8.204;2022-12-20T10:37:37;101029.78;;;1.46;100.00
35023;BME280;21214;44.912;8.204;2022-12-20T10:40:04;101043.56;;;1.48;100.00
35023;BME280;21214;44.912;8.204;2022-12-20T10:42:39;101036.59;;;1.48;100.00
35023;BME280;21214;44.912;8.204;2022-12-20T10:45:26;101039.09;;;1.53;100.00
35023;BME280;21214;44.912;8.204;2022-12-20T10:47:56;101044.97;;;1.58;100.00
35023;BME280;21214;44.912;8.204;2022-12-20T10:50:22;101041.41;;;1.60;100.00
35023;BME280;21214;44.912;8.204;2022-12-20T10:55:47;101035.03;;;1.71;100.00
35023;BME280;21214;44.912;8.204;2022-12-20T10:58:17;101027.06;;;1.75;100.00
35023;BME280;21214;44.912;8.204;2022-12-20T11:00:45;101019.81;;;1.83;100.00
35023;BME280;21214;44.912;8.204;2022-12-20T11:03:13;101017.81;;;1.91;100.00
35023;BME280;21214;44.912;8.204;2022-12-20T11:05:40;101010.69;;;1.96;100.00
35023;BME280;21214;44.912;8.204;2022-12-20T11:08:16;100998.38;;;2.01;100.00
35023;BME280;21214;44.912;8.204;2022-12-20T11:10:41;101000.75;;;2.08;100.00
35023;BME280;21214;44.912;8.204;2022-12-20T11:13:17;100988.41;;;2.13;100.00
35023;BME280;21214;44.912;8.204;2022-12-20T11:15:46;100985.75;;;2.14;100.00
35023;BME280;21214;44.912;8.204;2022-12-20T11:18:37;100983.00;;;2.19;100.00
35023;BME280;21214;44.912;8.204;2022-12-20T11:23:43;100961.78;;;2.29;100.00
35023;BME280;21214;44.912;8.204;2022-12-20T11:28:40;100947.38;;;2.42;100.00
35023;BME280;21214;44.912;8.204;2022-12-20T11:33:46;100948.56;;;2.57;100.00
35023;BME280;21214;44.912;8.204;2022-12-20T11:38:51;100939.44;;;2.69;100.00
35023;BME280;21214;44.912;8.204;2022-12-20T11:49:15;100917.13;;;2.83;100.00
35023;BME280;21214;44.912;8.204;2022-12-20T11:51:45;100922.09;;;2.89;100.00
35023;BME280;21214;44.912;8.204;2022-12-20T11:54:27;100909.84;;;2.92;100.00
35023;BME280;21214;44.912;8.204;2022-12-20T11:57:12;100910.66;;;2.94;100.00
35023;BME280;21214;44.912;8.204;2022-12-20T11:59:41;100903.47;;;2.99;100.00
35023;BME280;21214;44.912;8.204;2022-12-20T12:02:12;100904.13;;;3.04;100.00
35023;BME280;21214;44.912;8.204;2022-12-20T12:07:14;100898.53;;;3.13;100.00
35023;BME280;21214;44.912;8.204;2022-12-20T12:09:55;100902.59;;;3.20;100.00
35023;BME280;21214;44.912;8.204;2022-12-20T12:15:03;100898.88;;;3.25;100.00
35023;BME280;21214;44.912;8.204;2022-12-20T12:17:46;100894.50;;;3.26;100.00
35023;BME280;21214;44.912;8.204;2022-12-20T12:20:21;100892.03;;;3.23;100.00
35023;BME280;21214;44.912;8.204;2022-12-20T12:22:48;100884.06;;;3.26;100.00
35023;BME280;21214;44.912;8.204;2022-12-20T12:25:16;100882.25;;;3.28;100.00
35023;BME280;21214;44.912;8.204;2022-12-20T12:27:42;100878.75;;;3.29;100.00
35023;BME280;21214;44.912;8.204;2022-12-20T12:30:11;100876.91;;;3.31;100.00
35023;BME280;21214;44.912;8.204;2022-12-20T12:32:53;100879.44;;;3.33;100.00
35023;BME280;21214;44.912;8.204;2022-12-20T12:35:22;100867.91;;;3.38;100.00
35023;BME280;21214;44.912;8.204;2022-12-20T12:40:42;100869.19;;;3.48;100.00
35023;BME280;21214;44.912;8.204;2022-12-20T12:45:56;100854.72;;;3.61;100.00
35023;BME280;21214;44.912;8.204;2022-12-20T12:48:35;100854.44;;;3.67;100.00
35023;BME280;21214;44.912;8.204;2022-12-20T12:51:03;100854.16;;;3.74;100.00
35023;BME280;21214;44.912;8.204;2022-12-20T12:55:54;100849.59;;;3.79;100.00
35023;BME280;21214;44.912;8.204;2022-12-20T13:00:55;100848.94;;;3.74;100.00
35023;BME280;21214;44.912;8.204;2022-12-20T13:06:18;100847.78;;;3.81;100.00
35023;BME280;21214;44.912;8.204;2022-12-20T13:08:48;100841.47;;;3.85;100.00
35023;BME280;21214;44.912;8.204;2022-12-20T13:11:27;100850.09;;;3.87;100.00
35023;BME280;21214;44.912;8.204;2022-12-20T13:16:52;100834.56;;;3.84;100.00
35023;BME280;21214;44.912;8.204;2022-12-20T13:22:35;100831.19;;;3.82;100.00
35023;BME280;21214;44.912;8.204;2022-12-20T13:24:36;100836.25;;;3.85;100.00
35023;BME280;21214;44.912;8.204;2022-12-20T13:37:58;100793.34;;;4.09;100.00
35023;BME280;21214;44.912;8.204;2022-12-20T13:40:34;100794.75;;;4.16;100.00
35023;BME280;21214;44.912;8.204;2022-12-20T13:43:43;100793.69;;;4.20;100.00
35023;BME280;21214;44.912;8.204;2022-12-20T13:45:54;100785.84;;;4.20;100.00
35023;BME280;21214;44.912;8.204;2022-12-20T13:48:24;100780.78;;;4.17;100.00
35023;BME280;21214;44.912;8.204;2022-12-20T13:50:55;100787.84;;;4.15;100.00
35023;BME280;21214;44.912;8.204;2022-12-20T13:53:22;100779.38;;;4.10;100.00
35023;BME280;21214;44.912;8.204;2022-12-20T13:55:47;100788.28;;;4.06;100.00
35023;BME280;21214;44.912;8.204;2022-12-20T14:00:39;100782.50;;;3.99;100.00
35023;BME280;21214;44.912;8.204;2022-12-20T14:03:07;100780.88;;;3.97;100.00
35023;BME280;21214;44.912;8.204;2022-12-20T14:05:38;100783.47;;;3.97;100.00
35023;BME280;21214;44.912;8.204;2022-12-20T14:08:21;100780.06;;;3.95;100.00
35023;BME280;21214;44.912;8.204;2022-12-20T14:10:50;100779.31;;;3.93;100.00
35023;BME280;21214;44.912;8.204;2022-12-20T14:13:18;100775.00;;;3.92;100.00
35023;BME280;21214;44.912;8.204;2022-12-20T14:15:44;100775.91;;;3.91;100.00
35023;BME280;21214;44.912;8.204;2022-12-20T14:18:15;100771.63;;;3.90;100.00
35023;BME280;21214;44.912;8.204;2022-12-20T14:20:41;100776.00;;;3.89;100.00
35023;BME280;21214;44.912;8.204;2022-12-20T14:23:11;100783.91;;;3.88;100.00
35023;BME280;21214;44.912;8.204;2022-12-20T14:28:12;100785.91;;;3.83;100.00